Nearby METAR Reports

Aktualna pogoda na lotniskach (dane METAR)

 

EPGD - Gdansk/Rebiechow, Poland
Distance from station: ENE 27mi, 44km
Updated: Mon, 22-Apr-2019 3:30pm PDT
Clear
Clear
 Wind from ESE
Wind: ESE 10 mph , 17 km/h
Temperature: 48°F , 9°C
Wind Chill: 44°F , 7°C
Dew Point: 37°F , 3°C
Humidity: 66%
Barometer: 30.24 inHg , 1024 hPa
Summary: Clear
Visibility: greater than 7 miles , 10 km
2019/04/22 22:30 EPGD 222230Z 11009KT CAVOK 09/03 Q1024
EPSC - Szczecin/Golenio, Poland
Distance from station: WSW 128mi, 205km
Updated: Mon, 22-Apr-2019 3:30pm PDT
Clear
Clear
 Wind from E
Wind: E 12 mph , 19 km/h
Temperature: 54°F , 12°C
Dew Point: 39°F , 4°C
Humidity: 58%
Barometer: 30.09 inHg , 1019 hPa
Summary: Clear
Visibility: greater than 7 miles , 10 km
2019/04/22 22:30 EPSC 222230Z 08010KT CAVOK 12/04 Q1019
 
EPPO - Poznan/Lawica, Poland
Distance from station: SSW 131mi, 210km
Updated: Mon, 22-Apr-2019 3:30pm PDT
Clear
Clear
 Wind from ESE
Wind: ESE 16 mph , 26 km/h
Temperature: 54°F , 12°C
Dew Point: 36°F , 2°C
Humidity: 51%
Barometer: 30.09 inHg , 1019 hPa
Summary: Clear
Visibility: greater than 7 miles , 10 km
2019/04/22 22:30 EPPO 222230Z 11014KT CAVOK 12/02 Q1019
EPLL - Lodz/Lublinek, Poland
Distance from station: SSE 184mi, 296km
Updated: Mon, 22-Apr-2019 3:30pm PDT
Clear
Clear
 Wind from E
Wind: E 15 mph , 24 km/h
Temperature: 50°F , 10°C
Wind Chill: 45°F , 7°C
Dew Point: 30°F , -1°C
Humidity: 47%
Barometer: 30.15 inHg , 1021 hPa
Summary: Clear
Visibility: greater than 7 miles , 10 km
2019/04/22 22:30 EPLL 222230Z 09013KT CAVOK 10/M01 Q1021
 
EPWA - Warsaw/Okecie, Poland
Distance from station: SE 191mi, 307km
Updated: Mon, 22-Apr-2019 3:30pm PDT
Clear
Clear
 Wind from E
Wind: E 12 mph , 19 km/h
Temperature: 50°F , 10°C
Wind Chill: 45°F , 7°C
Dew Point: 34°F , 1°C
Humidity: 54%
Barometer: 30.24 inHg , 1024 hPa
Summary: Clear
Visibility: greater than 7 miles , 10 km
2019/04/22 22:30 EPWA 222230Z 10010KT CAVOK 10/01 Q1024 NOSIG
EPWR - Wroclaw/Strachow, Poland
Distance from station: S 219mi, 352km
Updated: Mon, 22-Apr-2019 3:30pm PDT
Clear
Clear
 Wind from E
Wind: E 13 mph , 20 km/h
Temperature: 52°F , 11°C
Dew Point: 34°F , 1°C
Humidity: 50%
Barometer: 30.03 inHg , 1017 hPa
Summary: Clear
Visibility: greater than 7 miles , 10 km
2019/04/22 22:30 EPWR 222230Z 10011KT CAVOK 11/01 Q1017

Metar display script from Saratoga-Weather.org